Knife Falls, Minnesota
Current Conditions -  °F | °C
As of 8:57 PM on Monday 20 Oct 2014 (Local Time) from KCOQ Reporting Station
Overcast Overcast  
Wind Chill: 43°   Ceiling: 2500
Heat Index: 46°   Visibility: 10mi
Dew Point: 36°   Wind: 7mph
Humidity: 66%   Direction: 20°NNE
Pressure: 30.09"   Gusts: NA
Location:  46.7232°N, 92.5588°W
Report Text: KCOQ 210157Z AUTO 02006KT 10SM OVC025 08/02 A3009 RMK AO2
Loading
Personal Weather Stations






























Interactive Weather Map
Tropical Storm Tracking
New forecast layout! Learn more

10-Day Weather Forecast

Advertisements
Track Severe Weather on mobile